createdAt,value
2019-03-22T00:00:15.877Z,20.91
2019-03-22T00:01:15.956Z,20.93
2019-03-22T00:02:15.992Z,20.94
2019-03-22T00:03:16.272Z,20.97
2019-03-22T00:04:16.050Z,20.97
2019-03-22T00:05:16.039Z,20.88
2019-03-22T00:06:16.068Z,20.87
2019-03-22T00:08:16.275Z,20.88
2019-03-22T00:09:16.227Z,20.90
2019-03-22T00:10:16.491Z,20.96
2019-03-22T00:11:16.278Z,20.97
2019-03-22T00:12:16.261Z,20.96
2019-03-22T00:13:16.296Z,20.96
2019-03-22T00:14:16.477Z,20.88
2019-03-22T00:15:16.407Z,20.90
2019-03-22T00:16:16.401Z,20.88
2019-03-22T00:17:16.723Z,20.88
2019-03-22T00:18:16.503Z,20.94
2019-03-22T00:19:16.482Z,20.93
2019-03-22T00:20:16.560Z,20.85
2019-03-22T00:21:16.546Z,20.85
2019-03-22T00:22:16.579Z,20.88
2019-03-22T00:23:16.607Z,20.90
2019-03-22T00:24:16.945Z,20.85
2019-03-22T00:25:16.719Z,20.96
2019-03-22T00:26:16.704Z,20.88
2019-03-22T00:27:17.001Z,20.87
2019-03-22T00:28:16.770Z,20.85
2019-03-22T00:29:16.799Z,20.83
2019-03-22T00:30:16.829Z,20.83
2019-03-22T00:31:17.216Z,20.85
2019-03-22T00:32:16.897Z,20.82
2019-03-22T00:33:16.982Z,20.85
2019-03-22T00:34:17.010Z,20.91
2019-03-22T00:35:17.042Z,20.83
2019-03-22T00:36:17.075Z,20.83
2019-03-22T00:37:17.060Z,20.85
2019-03-22T00:38:17.444Z,20.85
2019-03-22T00:39:17.120Z,20.81
2019-03-22T00:40:17.305Z,20.79
2019-03-22T00:41:17.251Z,20.83
2019-03-22T00:42:17.213Z,20.81
2019-03-22T00:43:17.294Z,20.87
2019-03-22T00:44:17.379Z,20.88
2019-03-22T00:45:17.616Z,20.79
2019-03-22T00:46:17.342Z,20.85
2019-03-22T00:48:17.456Z,20.88
2019-03-22T00:49:17.448Z,20.82
2019-03-22T00:50:17.528Z,20.79
2019-03-22T00:51:17.555Z,20.79
2019-03-22T00:52:17.887Z,20.79
2019-03-22T00:54:17.959Z,20.83
2019-03-22T00:55:17.682Z,20.82
2019-03-22T00:56:17.709Z,20.85
2019-03-22T00:58:17.785Z,20.83
2019-03-22T01:00:18.090Z,20.81
2019-03-22T01:01:17.870Z,20.76
2019-03-22T01:02:17.852Z,20.82
2019-03-22T01:03:17.943Z,20.78
2019-03-22T01:04:17.971Z,20.79
2019-03-22T01:05:18.004Z,20.72
2019-03-22T01:06:18.028Z,20.71
2019-03-22T01:07:18.470Z,20.71
2019-03-22T01:08:18.190Z,20.76
2019-03-22T01:09:18.077Z,20.75
2019-03-22T01:10:18.264Z,20.69
2019-03-22T01:11:18.142Z,20.76
2019-03-22T01:12:18.224Z,20.71
2019-03-22T01:13:18.199Z,20.73
2019-03-22T01:14:18.238Z,20.71
2019-03-22T01:15:18.267Z,20.73
2019-03-22T01:16:18.343Z,20.69
2019-03-22T01:17:18.331Z,20.72
2019-03-22T01:18:18.362Z,20.73
2019-03-22T01:19:18.439Z,20.78
2019-03-22T01:20:18.730Z,20.72
2019-03-22T01:21:18.508Z,20.71
2019-03-22T01:22:18.494Z,20.61
2019-03-22T01:23:18.518Z,20.72
2019-03-22T01:24:18.553Z,20.63
2019-03-22T01:25:18.580Z,20.61
2019-03-22T01:26:19.023Z,20.61
2019-03-22T01:27:18.702Z,20.73
2019-03-22T01:28:18.729Z,20.73
2019-03-22T01:29:18.762Z,20.61
2019-03-22T01:30:18.901Z,20.58
2019-03-22T01:31:18.830Z,20.71
2019-03-22T01:32:19.119Z,20.66
2019-03-22T01:33:18.988Z,20.71
2019-03-22T01:34:18.873Z,20.72
2019-03-22T01:35:18.909Z,20.64
2019-03-22T01:36:18.934Z,20.69
2019-03-22T01:37:19.016Z,20.68
2019-03-22T01:38:19.304Z,20.68
2019-03-22T01:39:19.084Z,20.71
2019-03-22T01:40:19.112Z,20.68
2019-03-22T01:41:19.092Z,20.63
2019-03-22T01:42:19.131Z,20.63
2019-03-22T01:43:19.157Z,20.57
2019-03-22T01:44:19.231Z,20.61
2019-03-22T01:45:19.616Z,20.66
2019-03-22T01:46:19.256Z,20.64
2019-03-22T01:47:19.331Z,20.61
2019-03-22T01:48:19.373Z,20.61
2019-03-22T01:49:19.397Z,20.60
2019-03-22T01:50:19.380Z,20.60
2019-03-22T01:51:19.468Z,20.66
2019-03-22T01:52:19.816Z,20.56
2019-03-22T01:53:19.477Z,20.58
2019-03-22T01:54:19.502Z,20.60
2019-03-22T01:55:19.588Z,20.61
2019-03-22T01:56:19.568Z,20.64
2019-03-22T01:57:19.659Z,20.56
2019-03-22T01:58:19.629Z,20.54
2019-03-22T01:59:20.016Z,20.60
2019-03-22T02:00:19.688Z,20.54
2019-03-22T02:01:19.870Z,20.58
2019-03-22T02:02:19.751Z,20.53
2019-03-22T02:03:19.801Z,20.56
2019-03-22T02:05:19.899Z,20.53
2019-03-22T02:06:20.179Z,20.57
2019-03-22T02:07:19.919Z,20.44
2019-03-22T02:08:19.941Z,20.56
2019-03-22T02:09:20.030Z,20.60
2019-03-22T02:10:20.018Z,20.53
2019-03-22T02:11:20.091Z,20.44
2019-03-22T02:12:20.122Z,20.44
2019-03-22T02:13:20.948Z,20.42
2019-03-22T02:14:20.143Z,20.54
2019-03-22T02:15:20.174Z,20.42
2019-03-22T02:16:20.552Z,20.42
2019-03-22T02:17:20.283Z,20.44
2019-03-22T02:18:20.261Z,20.46
2019-03-22T02:20:20.471Z,20.42
2019-03-22T02:21:20.808Z,20.48
2019-03-22T02:22:20.458Z,20.51
2019-03-22T02:23:20.514Z,20.50
2019-03-22T02:25:20.482Z,20.46
2019-03-22T02:26:20.561Z,20.46
2019-03-22T02:27:20.599Z,20.44
2019-03-22T02:28:20.927Z,20.41
2019-03-22T02:29:20.609Z,20.46
2019-03-22T02:30:20.704Z,20.44
2019-03-22T02:31:20.724Z,20.50
2019-03-22T02:32:20.700Z,20.48
2019-03-22T02:33:20.776Z,20.44
2019-03-22T02:34:20.829Z,20.38
2019-03-22T02:35:28.835Z,20.44
2019-03-22T02:36:20.882Z,20.44
2019-03-22T02:37:20.858Z,20.40
2019-03-22T02:38:20.939Z,20.42
2019-03-22T02:40:20.961Z,20.42
2019-03-22T02:41:20.989Z,20.50
2019-03-22T02:42:21.371Z,20.44
2019-03-22T02:43:21.099Z,20.42
2019-03-22T02:44:21.081Z,20.42
2019-03-22T02:45:21.112Z,20.40
2019-03-22T02:46:21.191Z,20.42
2019-03-22T02:47:21.222Z,20.42
2019-03-22T02:48:21.210Z,20.38
2019-03-22T02:49:21.533Z,20.40
2019-03-22T02:50:21.404Z,20.40
2019-03-22T02:51:21.302Z,20.40
2019-03-22T02:52:21.383Z,20.38
2019-03-22T02:53:21.373Z,20.42
2019-03-22T02:54:21.452Z,20.37
2019-03-22T02:55:21.580Z,20.40
2019-03-22T02:56:21.866Z,20.42
2019-03-22T02:57:21.495Z,20.37
2019-03-22T02:58:21.592Z,20.40
2019-03-22T02:59:21.551Z,20.40
2019-03-22T03:00:21.633Z,20.37
2019-03-22T03:01:21.617Z,20.38
2019-03-22T03:02:21.717Z,20.35
2019-03-22T03:03:22.035Z,20.40
2019-03-22T03:04:21.711Z,20.35
2019-03-22T03:05:21.742Z,20.34
2019-03-22T03:06:21.794Z,20.31
2019-03-22T03:07:21.871Z,20.27
2019-03-22T03:08:21.889Z,20.35
2019-03-22T03:09:21.923Z,20.35
2019-03-22T03:10:22.302Z,20.35
2019-03-22T03:11:22.277Z,20.31
2019-03-22T03:12:22.011Z,20.33
2019-03-22T03:13:21.994Z,20.38
2019-03-22T03:14:22.026Z,20.34
2019-03-22T03:15:22.107Z,20.27
2019-03-22T03:17:22.474Z,20.33
2019-03-22T03:18:22.155Z,20.30
2019-03-22T03:19:22.240Z,20.30
2019-03-22T03:21:22.293Z,20.40
2019-03-22T03:22:22.326Z,20.31
2019-03-22T03:24:22.412Z,20.33
2019-03-22T03:25:22.673Z,20.33
2019-03-22T03:26:22.458Z,20.30
2019-03-22T03:27:22.480Z,20.37
2019-03-22T03:28:36.072Z,20.27
2019-03-22T03:29:22.502Z,20.27
2019-03-22T03:30:22.530Z,20.33
2019-03-22T03:31:22.611Z,20.26
2019-03-22T03:32:22.896Z,20.31
2019-03-22T03:33:22.631Z,20.31
2019-03-22T03:34:22.656Z,20.26
2019-03-22T03:35:22.838Z,20.25
2019-03-22T03:36:22.726Z,20.30
2019-03-22T03:37:22.806Z,20.23
2019-03-22T03:38:22.780Z,20.23
2019-03-22T03:40:23.139Z,20.26
2019-03-22T03:42:22.954Z,20.20
2019-03-22T03:43:22.995Z,20.22
2019-03-22T03:44:23.024Z,20.23
2019-03-22T03:45:23.152Z,20.23
2019-03-22T03:47:23.115Z,20.26
2019-03-22T03:48:23.396Z,20.19
2019-03-22T03:49:23.127Z,20.16
2019-03-22T03:50:23.158Z,20.12
2019-03-22T03:51:23.233Z,20.22
2019-03-22T03:52:23.213Z,20.13
2019-03-22T03:53:23.996Z,20.20
2019-03-22T03:54:23.287Z,20.20
2019-03-22T03:55:23.620Z,20.20
2019-03-22T03:56:23.395Z,20.15
2019-03-22T03:57:23.380Z,20.16
2019-03-22T03:58:23.462Z,20.15
2019-03-22T03:59:23.493Z,20.13
2019-03-22T04:00:23.520Z,20.13
2019-03-22T04:01:23.562Z,20.13
2019-03-22T04:02:23.834Z,20.19
2019-03-22T04:03:23.610Z,20.15
2019-03-22T04:04:23.647Z,20.15
2019-03-22T04:05:23.670Z,20.16
2019-03-22T04:06:23.730Z,20.13
2019-03-22T04:07:23.761Z,20.12
2019-03-22T04:08:23.781Z,20.15
2019-03-22T04:10:24.085Z,20.17
2019-03-22T04:11:23.863Z,20.13
2019-03-22T04:12:23.992Z,20.17
2019-03-22T04:13:24.034Z,20.13
2019-03-22T04:14:23.957Z,20.16
2019-03-22T04:15:23.937Z,20.13
2019-03-22T04:16:24.073Z,20.16
2019-03-22T04:17:24.383Z,20.15
2019-03-22T04:19:24.068Z,20.17
2019-03-22T04:20:24.100Z,20.20
2019-03-22T04:21:24.129Z,20.17
2019-03-22T04:22:24.158Z,20.13
2019-03-22T04:23:24.192Z,20.10
2019-03-22T04:24:24.675Z,20.15
2019-03-22T04:25:24.285Z,20.17
2019-03-22T04:26:24.336Z,20.12
2019-03-22T04:27:24.366Z,20.13
2019-03-22T04:28:24.352Z,20.12
2019-03-22T04:29:24.423Z,20.19
2019-03-22T04:31:24.490Z,20.15
2019-03-22T04:32:24.877Z,20.12
2019-03-22T04:33:24.506Z,20.01
2019-03-22T04:35:24.610Z,20.08
2019-03-22T04:36:25.015Z,20.05
2019-03-22T04:37:24.630Z,20.05
2019-03-22T04:38:24.712Z,20.12
2019-03-22T04:39:24.990Z,20.05
2019-03-22T04:40:24.765Z,20.01
2019-03-22T04:41:24.747Z,20.05
2019-03-22T04:42:24.783Z,20.07
2019-03-22T04:43:24.823Z,20.00
2019-03-22T04:44:24.847Z,20.02
2019-03-22T04:46:25.054Z,20.07
2019-03-22T04:47:25.292Z,20.02
2019-03-22T04:48:25.025Z,20.05
2019-03-22T04:49:25.008Z,20.12
2019-03-22T04:50:25.028Z,20.12
2019-03-22T04:52:25.146Z,20.12
2019-03-22T04:53:25.879Z,20.05
2019-03-22T04:54:25.511Z,20.04
2019-03-22T04:55:25.248Z,20.07
2019-03-22T04:56:25.228Z,20.05
2019-03-22T04:57:25.304Z,20.16
2019-03-22T04:58:25.288Z,20.16
2019-03-22T04:59:25.362Z,20.04
2019-03-22T05:00:25.346Z,20.02
2019-03-22T05:01:25.688Z,20.07
2019-03-22T05:03:25.492Z,20.07
2019-03-22T05:04:25.627Z,20.08
2019-03-22T05:05:25.549Z,20.02
2019-03-22T05:06:25.543Z,20.01
2019-03-22T05:07:25.689Z,20.04
2019-03-22T05:08:25.946Z,20.01
2019-03-22T05:09:25.627Z,20.12
2019-03-22T05:10:25.658Z,20.04
2019-03-22T05:11:25.739Z,20.07
2019-03-22T05:12:25.766Z,20.05
2019-03-22T05:13:25.753Z,20.07
2019-03-22T05:14:25.933Z,20.04
2019-03-22T05:15:26.164Z,20.02
2019-03-22T05:16:25.840Z,20.05
2019-03-22T05:18:25.960Z,20.05
2019-03-22T05:19:25.940Z,20.05
2019-03-22T05:20:26.023Z,20.01
2019-03-22T05:21:25.996Z,19.94
2019-03-22T05:22:26.336Z,20.02
2019-03-22T05:23:26.109Z,19.92
2019-03-22T05:24:26.097Z,20.05
2019-03-22T05:25:26.121Z,20.05
2019-03-22T05:26:26.207Z,19.95
2019-03-22T05:27:26.350Z,20.04
2019-03-22T05:28:26.276Z,19.94
2019-03-22T05:29:30.849Z,20.04
2019-03-22T05:30:26.277Z,19.95
2019-03-22T05:31:26.314Z,19.87
2019-03-22T05:32:26.399Z,20.05
2019-03-22T05:33:26.429Z,19.94
2019-03-22T05:34:26.402Z,20.01
2019-03-22T05:35:26.489Z,20.00
2019-03-22T05:36:26.768Z,19.90
2019-03-22T05:37:26.553Z,19.97
2019-03-22T05:38:26.535Z,19.94
2019-03-22T05:39:26.631Z,19.94
2019-03-22T05:40:26.641Z,19.94
2019-03-22T05:41:26.678Z,19.94
2019-03-22T05:42:26.703Z,19.94
2019-03-22T05:43:27.054Z,19.95
2019-03-22T05:44:26.722Z,19.95
2019-03-22T05:45:26.799Z,19.94
2019-03-22T05:46:26.783Z,19.92
2019-03-22T05:47:26.814Z,19.94
2019-03-22T05:48:26.996Z,19.90
2019-03-22T05:49:26.884Z,19.94
2019-03-22T05:50:27.205Z,19.94
2019-03-22T05:51:28.590Z,19.92
2019-03-22T05:52:27.015Z,19.92
2019-03-22T05:53:27.049Z,19.94
2019-03-22T05:54:27.031Z,19.92
2019-03-22T05:55:27.111Z,19.95
2019-03-22T05:56:27.138Z,19.94
2019-03-22T05:57:27.437Z,19.98
2019-03-22T05:58:27.304Z,19.92
2019-03-22T05:59:27.230Z,19.89
2019-03-22T06:00:27.217Z,19.95
2019-03-22T06:02:27.273Z,19.95
2019-03-22T06:03:27.363Z,19.95
2019-03-22T06:04:27.690Z,19.94
2019-03-22T06:05:27.421Z,19.92
2019-03-22T06:06:27.449Z,19.94
2019-03-22T06:07:27.487Z,19.98
2019-03-22T06:08:27.516Z,19.90
2019-03-22T06:09:27.641Z,19.92
2019-03-22T06:10:27.531Z,19.94
2019-03-22T06:11:27.953Z,19.89
2019-03-22T06:12:27.584Z,19.94
2019-03-22T06:14:27.704Z,19.90
2019-03-22T06:15:27.682Z,19.92
2019-03-22T06:16:27.715Z,19.92
2019-03-22T06:17:28.060Z,20.02
2019-03-22T06:18:27.830Z,19.94
2019-03-22T06:20:27.889Z,19.90
2019-03-22T06:21:27.867Z,19.95
2019-03-22T06:22:27.900Z,19.90
2019-03-22T06:23:28.279Z,19.92
2019-03-22T06:24:27.958Z,19.95
2019-03-22T06:25:28.044Z,19.95
2019-03-22T06:26:28.028Z,19.94
2019-03-22T06:27:28.107Z,20.04
2019-03-22T06:28:28.086Z,19.94
2019-03-22T06:29:28.469Z,20.05
2019-03-22T06:30:28.843Z,20.04
2019-03-22T06:31:28.236Z,20.05
2019-03-22T06:32:28.215Z,20.05
2019-03-22T06:33:28.249Z,20.01
2019-03-22T06:34:28.325Z,20.00
2019-03-22T06:35:28.316Z,20.01
2019-03-22T06:36:28.695Z,20.05
2019-03-22T06:37:28.374Z,20.02
2019-03-22T06:38:28.401Z,20.00
2019-03-22T06:39:28.438Z,20.05
2019-03-22T06:40:28.508Z,20.02
2019-03-22T06:41:28.552Z,20.04
2019-03-22T06:42:28.528Z,20.02
2019-03-22T06:43:28.906Z,20.02
2019-03-22T06:44:28.583Z,20.02
2019-03-22T06:45:28.667Z,20.04
2019-03-22T06:46:28.646Z,20.08
2019-03-22T06:47:28.679Z,20.07
2019-03-22T06:48:28.761Z,20.01
2019-03-22T06:50:28.822Z,20.07
2019-03-22T06:51:29.162Z,20.05
2019-03-22T06:52:28.900Z,20.05
2019-03-22T06:53:29.614Z,19.98
2019-03-22T06:54:31.945Z,20.02
2019-03-22T06:55:28.985Z,20.01
2019-03-22T06:56:29.020Z,20.00
2019-03-22T06:57:28.996Z,20.04
2019-03-22T06:58:29.334Z,20.08
2019-03-22T06:59:29.050Z,20.17
2019-03-22T07:00:29.100Z,20.16
2019-03-22T07:03:29.237Z,20.15
2019-03-22T07:04:29.270Z,20.16
2019-03-22T07:05:29.305Z,20.13
2019-03-22T07:06:29.275Z,20.12
2019-03-22T07:07:29.305Z,20.15
2019-03-22T07:08:29.386Z,20.12
2019-03-22T07:10:29.450Z,20.19
2019-03-22T07:11:29.730Z,20.10
2019-03-22T07:12:29.516Z,20.15
2019-03-22T07:13:29.543Z,20.16
2019-03-22T07:14:29.583Z,20.16
2019-03-22T07:15:29.556Z,20.17
2019-03-22T07:16:29.592Z,20.16
2019-03-22T07:17:29.770Z,20.17
2019-03-22T07:18:29.709Z,20.19
2019-03-22T07:19:29.734Z,20.13
2019-03-22T07:20:29.806Z,20.16
2019-03-22T07:21:29.745Z,20.17
2019-03-22T07:22:29.826Z,20.20
2019-03-22T07:23:29.861Z,20.17
2019-03-22T07:25:29.918Z,20.22
2019-03-22T07:26:30.246Z,20.17
2019-03-22T07:27:29.988Z,20.13
2019-03-22T07:28:29.972Z,20.15
2019-03-22T07:29:29.994Z,20.19
2019-03-22T07:30:30.079Z,20.20
2019-03-22T07:31:30.412Z,20.20
2019-03-22T07:32:30.096Z,20.16
2019-03-22T07:33:30.123Z,20.17
2019-03-22T07:34:30.198Z,20.20
2019-03-22T07:35:30.234Z,20.16
2019-03-22T07:36:30.267Z,20.16
2019-03-22T07:37:30.547Z,20.20
2019-03-22T07:38:30.283Z,20.22
2019-03-22T07:39:30.355Z,20.20
2019-03-22T07:40:30.391Z,20.20
2019-03-22T07:41:30.373Z,20.22
2019-03-22T07:42:30.396Z,20.22
2019-03-22T07:43:30.732Z,20.22
2019-03-22T07:44:30.515Z,20.31
2019-03-22T07:45:30.542Z,20.20
2019-03-22T07:46:30.531Z,20.25
2019-03-22T07:47:30.716Z,20.31
2019-03-22T07:48:30.605Z,20.25
2019-03-22T07:49:31.077Z,20.34
2019-03-22T07:50:30.659Z,20.26
2019-03-22T07:51:30.730Z,20.35
2019-03-22T07:52:30.715Z,20.35
2019-03-22T07:53:30.743Z,20.31
2019-03-22T07:54:30.832Z,20.30
2019-03-22T07:55:30.857Z,20.30
2019-03-22T07:56:30.855Z,20.27
2019-03-22T07:57:30.874Z,20.34
2019-03-22T07:58:30.905Z,20.38
2019-03-22T07:59:30.985Z,20.35
2019-03-22T08:00:31.359Z,20.38
2019-03-22T08:01:31.003Z,20.33
2019-03-22T08:02:31.376Z,20.35
2019-03-22T08:03:31.065Z,20.38
2019-03-22T08:04:31.139Z,20.40
2019-03-22T08:05:31.169Z,20.42
2019-03-22T08:06:31.503Z,20.38
2019-03-22T08:07:31.235Z,20.42
2019-03-22T08:08:31.217Z,20.37
2019-03-22T08:09:31.312Z,20.38
2019-03-22T08:10:31.328Z,20.41
2019-03-22T08:11:31.341Z,20.41
2019-03-22T08:12:31.349Z,20.42
2019-03-22T08:13:31.379Z,20.48
2019-03-22T08:14:31.409Z,20.46
2019-03-22T08:15:31.794Z,20.42
2019-03-22T08:16:31.525Z,20.46
2019-03-22T08:17:31.503Z,20.42
2019-03-22T08:18:31.539Z,20.41
2019-03-22T08:19:31.620Z,20.48
2019-03-22T08:20:31.644Z,20.53
2019-03-22T08:21:31.675Z,20.46
2019-03-22T08:22:32.014Z,20.48
2019-03-22T08:23:31.747Z,20.50
2019-03-22T08:24:31.724Z,20.46
2019-03-22T08:25:32.591Z,20.51
2019-03-22T08:26:31.878Z,20.44
2019-03-22T08:27:31.879Z,20.46
2019-03-22T08:28:31.852Z,20.46
2019-03-22T08:29:32.295Z,20.56
2019-03-22T08:30:42.538Z,20.42
2019-03-22T08:31:31.992Z,20.54
2019-03-22T08:32:32.025Z,20.56
2019-03-22T08:33:32.048Z,20.58
2019-03-22T08:34:32.036Z,20.54
2019-03-22T08:35:32.096Z,20.56
2019-03-22T08:37:32.203Z,20.56
2019-03-22T08:38:32.202Z,20.57
2019-03-22T08:39:32.284Z,20.61
2019-03-22T08:41:32.259Z,20.58
2019-03-22T08:42:32.642Z,20.60
2019-03-22T08:44:32.505Z,20.61
2019-03-22T08:45:32.402Z,20.60
2019-03-22T08:46:32.500Z,20.64
2019-03-22T08:47:34.347Z,20.60
2019-03-22T08:48:32.538Z,20.66
2019-03-22T08:49:32.750Z,20.63
2019-03-22T08:50:32.599Z,20.64
2019-03-22T08:51:32.627Z,20.61
2019-03-22T08:52:32.665Z,20.68
2019-03-22T08:54:32.775Z,20.61
2019-03-22T08:55:33.059Z,20.73
2019-03-22T08:56:35.838Z,20.64
2019-03-22T08:57:32.833Z,20.63
2019-03-22T08:58:32.844Z,20.76
2019-03-22T08:59:32.883Z,20.61
2019-03-22T09:00:39.042Z,20.61
2019-03-22T09:01:33.229Z,20.75
2019-03-22T09:02:32.987Z,20.63
2019-03-22T09:03:33.315Z,20.64
2019-03-22T09:04:32.996Z,20.72
2019-03-22T09:05:33.043Z,20.71
2019-03-22T09:06:33.109Z,20.71
2019-03-22T09:07:33.164Z,20.71
2019-03-22T09:08:33.487Z,20.73
2019-03-22T09:09:41.506Z,20.71
2019-03-22T09:10:33.281Z,20.69
2019-03-22T09:11:33.336Z,20.81
2019-03-22T09:12:33.292Z,20.78
2019-03-22T09:13:33.293Z,20.83
2019-03-22T09:14:33.412Z,20.83
2019-03-22T09:15:40.950Z,20.81
2019-03-22T09:16:33.375Z,20.78
2019-03-22T09:17:33.410Z,20.82
2019-03-22T09:18:33.467Z,20.82
2019-03-22T09:19:33.564Z,20.85
2019-03-22T09:20:33.572Z,20.81
2019-03-22T09:22:33.614Z,20.82
2019-03-22T09:23:33.649Z,20.90
2019-03-22T09:24:39.001Z,20.90
2019-03-22T09:25:33.695Z,20.90
2019-03-22T09:27:36.445Z,20.85
2019-03-22T09:28:34.058Z,20.87
2019-03-22T09:29:33.838Z,20.76
2019-03-22T09:30:33.819Z,20.90
2019-03-22T09:31:33.898Z,20.96
2019-03-22T09:32:33.932Z,20.96
2019-03-22T09:33:33.911Z,20.91
2019-03-22T09:34:34.347Z,20.93
2019-03-22T09:36:34.401Z,20.97
2019-03-22T09:37:34.045Z,20.88
2019-03-22T09:38:34.191Z,20.98
2019-03-22T09:39:34.160Z,21.00
2019-03-22T09:40:34.210Z,20.88
2019-03-22T09:41:34.175Z,20.85
2019-03-22T09:42:34.253Z,20.93
2019-03-22T09:43:34.605Z,20.88
2019-03-22T09:44:43.150Z,20.85
2019-03-22T09:45:34.303Z,20.94
2019-03-22T09:46:34.353Z,20.88
2019-03-22T09:47:34.411Z,20.93
2019-03-22T09:48:34.388Z,20.97
2019-03-22T09:49:34.438Z,20.94
2019-03-22T09:50:34.812Z,20.97
2019-03-22T09:51:34.635Z,21.00
2019-03-22T09:52:34.520Z,20.96
2019-03-22T09:53:34.611Z,20.96
2019-03-22T09:54:34.583Z,21.00
2019-03-22T09:55:34.670Z,20.98
2019-03-22T09:56:46.365Z,21.05
2019-03-22T09:57:34.681Z,21.00
2019-03-22T09:58:34.768Z,21.03
2019-03-22T09:59:34.804Z,21.05
2019-03-22T10:00:35.170Z,21.01
2019-03-22T10:01:34.820Z,20.97
2019-03-22T10:02:34.845Z,21.08
2019-03-22T10:03:35.236Z,21.05
2019-03-22T10:04:35.067Z,21.01
2019-03-22T10:05:34.984Z,21.08
2019-03-22T10:06:35.019Z,21.01
2019-03-22T10:07:35.079Z,21.03
2019-03-22T10:08:35.034Z,21.05
2019-03-22T10:09:35.423Z,21.06
2019-03-22T10:10:35.096Z,21.06
2019-03-22T10:11:35.149Z,21.03
2019-03-22T10:12:35.205Z,21.01
2019-03-22T10:13:35.257Z,21.03
2019-03-22T10:14:35.297Z,21.00
2019-03-22T10:15:35.558Z,21.05
2019-03-22T10:16:35.343Z,21.19
2019-03-22T10:17:35.337Z,21.06
2019-03-22T10:18:36.849Z,21.09
2019-03-22T10:19:35.491Z,21.15
2019-03-22T10:20:35.426Z,21.09
2019-03-22T10:21:35.806Z,21.11
2019-03-22T10:22:35.486Z,21.08
2019-03-22T10:23:35.629Z,21.11
2019-03-22T10:24:35.549Z,21.22
2019-03-22T10:25:35.633Z,21.16
2019-03-22T10:26:35.615Z,21.18
2019-03-22T10:27:35.694Z,21.21
2019-03-22T10:28:36.057Z,21.18
2019-03-22T10:29:35.731Z,21.21
2019-03-22T10:30:35.796Z,21.15
2019-03-22T10:31:37.520Z,21.15
2019-03-22T10:32:35.813Z,21.13
2019-03-22T10:33:35.843Z,21.15
2019-03-22T10:34:35.952Z,21.21
2019-03-22T10:35:36.321Z,21.19
2019-03-22T10:36:36.043Z,21.18
2019-03-22T10:37:35.970Z,21.15
2019-03-22T10:38:36.000Z,21.27
2019-03-22T10:39:36.082Z,21.27
2019-03-22T10:40:36.121Z,21.22
2019-03-22T10:41:36.122Z,21.26
2019-03-22T10:42:36.498Z,21.27
2019-03-22T10:43:36.412Z,21.28
2019-03-22T10:44:39.289Z,21.30
2019-03-22T10:45:36.283Z,21.36
2019-03-22T10:46:36.264Z,21.26
2019-03-22T10:47:36.339Z,21.34
2019-03-22T10:48:36.371Z,21.33
2019-03-22T10:49:36.655Z,21.33
2019-03-22T10:50:36.465Z,21.24
2019-03-22T10:51:36.424Z,21.28
2019-03-22T10:52:36.516Z,21.31
2019-03-22T10:53:36.532Z,21.30
2019-03-22T10:54:36.590Z,21.36
2019-03-22T10:56:36.637Z,21.38
2019-03-22T10:57:40.112Z,21.31
2019-03-22T10:58:36.648Z,21.30
2019-03-22T10:59:36.737Z,21.40
2019-03-22T11:00:36.766Z,21.36
2019-03-22T11:01:46.798Z,21.38
2019-03-22T11:02:36.924Z,21.38
2019-03-22T11:03:37.274Z,21.37
2019-03-22T11:04:36.899Z,21.38
2019-03-22T11:05:36.901Z,21.36
2019-03-22T11:06:36.964Z,21.34
2019-03-22T11:07:37.000Z,21.38
2019-03-22T11:08:36.979Z,21.34
2019-03-22T11:09:37.075Z,21.36
2019-03-22T11:10:37.054Z,21.36
2019-03-22T11:11:37.140Z,21.42
2019-03-22T11:12:37.158Z,21.40
2019-03-22T11:13:37.191Z,21.40
2019-03-22T11:14:37.172Z,21.42
2019-03-22T11:15:37.257Z,21.43
2019-03-22T11:16:37.538Z,21.49
2019-03-22T11:17:37.327Z,21.42
2019-03-22T11:18:37.815Z,21.45
2019-03-22T11:19:37.390Z,21.45
2019-03-22T11:20:37.395Z,21.48
2019-03-22T11:21:37.405Z,21.46
2019-03-22T11:22:37.781Z,21.48
2019-03-22T11:23:37.523Z,21.43
2019-03-22T11:24:37.542Z,21.46
2019-03-22T11:25:37.584Z,21.48
2019-03-22T11:26:37.615Z,21.48
2019-03-22T11:27:37.639Z,21.43
2019-03-22T11:29:37.675Z,21.53
2019-03-22T11:30:37.742Z,21.45
2019-03-22T11:31:40.196Z,21.42
2019-03-22T11:32:37.799Z,21.51
2019-03-22T11:33:37.787Z,21.49
2019-03-22T11:34:38.185Z,21.56
2019-03-22T11:35:37.927Z,21.53
2019-03-22T11:36:37.881Z,21.56
2019-03-22T11:37:37.980Z,21.53
2019-03-22T11:38:37.948Z,21.52
2019-03-22T11:39:38.032Z,21.51
2019-03-22T11:40:38.064Z,21.48
2019-03-22T11:41:38.424Z,21.55
2019-03-22T11:42:38.082Z,21.52
2019-03-22T11:43:38.173Z,21.49
2019-03-22T11:44:38.165Z,21.53
2019-03-22T11:45:38.189Z,21.52
2019-03-22T11:46:38.262Z,21.53
2019-03-22T11:47:38.244Z,21.53
2019-03-22T11:48:38.578Z,21.59
2019-03-22T11:49:38.304Z,21.56
2019-03-22T11:50:38.405Z,21.53
2019-03-22T11:51:40.179Z,21.58
2019-03-22T11:52:38.462Z,21.59
2019-03-22T11:53:38.494Z,21.56
2019-03-22T11:54:38.481Z,21.56
2019-03-22T11:55:38.576Z,21.59
2019-03-22T11:56:38.599Z,21.58
2019-03-22T11:57:38.721Z,21.56
2019-03-22T11:59:38.684Z,21.59
2019-03-22T12:00:38.723Z,21.56
2019-03-22T12:01:38.698Z,21.61
2019-03-22T12:02:38.730Z,21.59
2019-03-22T12:03:38.818Z,21.61
2019-03-22T12:04:38.852Z,21.66
2019-03-22T12:05:40.523Z,21.64
2019-03-22T12:06:38.922Z,21.59
2019-03-22T12:07:39.386Z,21.59
2019-03-22T12:08:39.082Z,21.66
2019-03-22T12:09:39.017Z,21.55
2019-03-22T12:10:38.992Z,21.55
2019-03-22T12:11:39.042Z,21.64
2019-03-22T12:12:39.108Z,21.61
2019-03-22T12:14:39.485Z,21.63
2019-03-22T12:15:39.207Z,21.59
2019-03-22T12:16:39.346Z,21.66
2019-03-22T12:17:39.224Z,21.67
2019-03-22T12:18:39.414Z,21.58
2019-03-22T12:19:39.347Z,21.66
2019-03-22T12:20:39.675Z,21.66
2019-03-22T12:21:39.355Z,21.59
2019-03-22T12:22:39.385Z,21.61
2019-03-22T12:23:39.467Z,21.59
2019-03-22T12:24:39.507Z,21.64
2019-03-22T12:25:39.487Z,21.67
2019-03-22T12:26:39.519Z,21.66
2019-03-22T12:27:39.604Z,21.71
2019-03-22T12:28:39.638Z,21.63
2019-03-22T12:29:39.973Z,21.66
2019-03-22T12:30:39.701Z,21.66
2019-03-22T12:31:39.741Z,21.63
2019-03-22T12:32:40.020Z,21.66
2019-03-22T12:33:39.751Z,21.73
2019-03-22T12:34:39.837Z,21.70
2019-03-22T12:35:39.866Z,21.67
2019-03-22T12:36:39.851Z,21.67
2019-03-22T12:37:39.886Z,21.68
2019-03-22T12:38:39.919Z,21.67
2019-03-22T12:39:41.885Z,21.70
2019-03-22T12:40:39.985Z,21.70
2019-03-22T12:41:40.015Z,21.75
2019-03-22T12:42:40.048Z,21.70
2019-03-22T12:43:40.134Z,21.73
2019-03-22T12:45:40.194Z,21.71
2019-03-22T12:46:40.518Z,21.74
2019-03-22T12:47:40.210Z,21.73
2019-03-22T12:48:40.324Z,21.71
2019-03-22T12:49:40.277Z,21.71
2019-03-22T12:50:40.316Z,21.79
2019-03-22T12:51:40.398Z,21.70
2019-03-22T12:52:40.430Z,21.82
2019-03-22T12:53:40.708Z,21.73
2019-03-22T12:54:40.446Z,21.81
2019-03-22T12:55:40.475Z,21.79
2019-03-22T12:56:40.561Z,21.79
2019-03-22T12:57:40.545Z,21.83
2019-03-22T12:58:40.574Z,21.73
2019-03-22T12:59:40.664Z,21.83
2019-03-22T13:00:40.990Z,21.83
2019-03-22T13:01:40.685Z,21.83
2019-03-22T13:02:42.417Z,21.82
2019-03-22T13:03:40.794Z,21.86
2019-03-22T13:04:40.777Z,21.75
2019-03-22T13:05:40.857Z,21.83
2019-03-22T13:06:40.844Z,21.73
2019-03-22T13:07:41.225Z,21.85
2019-03-22T13:08:40.957Z,21.79
2019-03-22T13:09:40.941Z,21.82
2019-03-22T13:10:40.982Z,21.89
2019-03-22T13:11:41.013Z,21.90
2019-03-22T13:12:41.046Z,21.82
2019-03-22T13:13:41.080Z,21.83
2019-03-22T13:14:41.413Z,21.86
2019-03-22T13:16:41.221Z,21.90
2019-03-22T13:17:41.207Z,21.86
2019-03-22T13:18:49.765Z,21.93
2019-03-22T13:19:41.324Z,21.90
2019-03-22T13:21:41.390Z,21.89
2019-03-22T13:22:41.679Z,21.94
2019-03-22T13:23:41.466Z,21.94
2019-03-22T13:24:41.476Z,21.94
2019-03-22T13:25:41.529Z,21.90
2019-03-22T13:26:41.529Z,21.98
2019-03-22T13:27:41.598Z,21.99
2019-03-22T13:28:41.648Z,22.01
2019-03-22T13:29:41.919Z,22.04
2019-03-22T13:30:41.696Z,22.06
2019-03-22T13:31:41.737Z,22.09
2019-03-22T13:32:41.780Z,22.11
2019-03-22T13:33:41.803Z,22.17
2019-03-22T13:34:41.791Z,22.21
2019-03-22T13:35:41.922Z,22.26
2019-03-22T13:36:42.210Z,22.29
2019-03-22T13:37:41.896Z,22.26